createdAt,value
2022-11-22T00:00:48.884Z,70.40
2022-11-22T00:01:51.734Z,70.39
2022-11-22T00:02:53.800Z,70.34
2022-11-22T00:03:56.623Z,70.63
2022-11-22T00:04:58.777Z,70.41
2022-11-22T00:06:01.755Z,70.35
2022-11-22T00:07:03.676Z,70.50
2022-11-22T00:08:07.033Z,70.15
2022-11-22T00:09:08.821Z,70.21
2022-11-22T00:10:13.965Z,70.37
2022-11-22T00:11:16.910Z,70.31
2022-11-22T00:12:19.124Z,70.37
2022-11-22T00:13:22.478Z,70.51
2022-11-22T00:14:24.403Z,70.51
2022-11-22T00:15:29.662Z,70.45
2022-11-22T00:16:31.548Z,70.36
2022-11-22T00:17:35.147Z,70.54
2022-11-22T00:18:37.014Z,70.71
2022-11-22T00:19:40.245Z,70.37
2022-11-22T00:20:42.204Z,70.31
2022-11-22T00:21:45.042Z,70.63
2022-11-22T00:22:46.890Z,70.49
2022-11-22T00:23:49.663Z,70.48
2022-11-22T00:24:52.684Z,70.43
2022-11-22T00:25:55.539Z,70.54
2022-11-22T00:26:57.347Z,70.43
2022-11-22T00:28:00.238Z,70.54
2022-11-22T00:29:02.111Z,70.28
2022-11-22T00:30:05.794Z,70.43
2022-11-22T00:31:09.073Z,70.21
2022-11-22T00:32:11.909Z,70.41
2022-11-22T00:33:13.720Z,70.43
2022-11-22T00:34:16.612Z,70.27
2022-11-22T00:35:18.625Z,70.58
2022-11-22T00:36:21.398Z,70.40
2022-11-22T00:37:23.208Z,70.49
2022-11-22T00:38:25.997Z,70.71
2022-11-22T00:39:28.232Z,70.98
2022-11-22T00:40:31.210Z,70.36
2022-11-22T00:41:33.213Z,70.62
2022-11-22T00:42:35.991Z,70.89
2022-11-22T00:43:37.779Z,70.43
2022-11-22T00:44:40.826Z,70.94
2022-11-22T00:45:42.767Z,70.64
2022-11-22T00:46:46.978Z,70.84
2022-11-22T00:47:48.770Z,70.56
2022-11-22T00:48:52.104Z,70.47
2022-11-22T00:49:53.854Z,70.65
2022-11-22T00:50:57.045Z,70.65
2022-11-22T00:51:58.861Z,70.67
2022-11-22T00:53:01.831Z,70.50
2022-11-22T00:54:04.530Z,70.38
2022-11-22T00:55:08.379Z,70.97
2022-11-22T00:56:10.168Z,70.63
2022-11-22T00:57:13.022Z,70.36
2022-11-22T00:58:15.198Z,70.98
2022-11-22T00:59:18.133Z,70.91
2022-11-22T01:00:20.551Z,70.78
2022-11-22T01:01:23.407Z,70.93
2022-11-22T01:02:26.648Z,70.77
2022-11-22T01:03:29.959Z,70.72
2022-11-22T01:04:31.794Z,70.89
2022-11-22T01:05:34.581Z,70.88
2022-11-22T01:06:36.475Z,70.77
2022-11-22T01:07:40.587Z,70.95
2022-11-22T01:08:42.507Z,70.43
2022-11-22T01:09:45.250Z,70.76
2022-11-22T01:10:47.090Z,70.89
2022-11-22T01:11:50.859Z,71.45
2022-11-22T01:12:52.642Z,70.99
2022-11-22T01:13:55.478Z,70.97
2022-11-22T01:14:57.334Z,70.97
2022-11-22T01:16:01.430Z,70.82
2022-11-22T01:17:03.469Z,70.92
2022-11-22T01:18:07.742Z,71.08
2022-11-22T01:19:09.802Z,70.35
2022-11-22T01:20:13.349Z,70.97
2022-11-22T01:21:15.137Z,70.66
2022-11-22T01:22:17.983Z,70.93
2022-11-22T01:23:19.974Z,70.91
2022-11-22T01:24:22.947Z,71.05
2022-11-22T01:25:24.699Z,71.45
2022-11-22T01:26:27.662Z,71.59
2022-11-22T01:27:30.484Z,71.42
2022-11-22T01:28:32.287Z,71.06
2022-11-22T01:29:35.088Z,70.92
2022-11-22T01:30:37.058Z,71.02
2022-11-22T01:31:39.983Z,71.18
2022-11-22T01:32:41.798Z,70.95
2022-11-22T01:33:45.989Z,71.35
2022-11-22T01:34:47.734Z,71.49
2022-11-22T01:35:50.514Z,71.20
2022-11-22T01:36:52.435Z,71.15
2022-11-22T01:37:55.292Z,71.29
2022-11-22T01:38:57.126Z,71.33
2022-11-22T01:39:59.951Z,71.28
2022-11-22T01:41:01.790Z,71.30
2022-11-22T01:42:04.914Z,71.43
2022-11-22T01:43:15.221Z,71.83
2022-11-22T01:44:22.764Z,71.45
2022-11-22T01:45:42.313Z,71.61
2022-11-22T01:46:45.269Z,71.22
2022-11-22T01:47:47.220Z,71.43
2022-11-22T01:48:57.720Z,71.46
2022-11-22T01:50:02.215Z,71.25
2022-11-22T01:51:10.644Z,71.83
2022-11-22T01:52:16.153Z,71.55
2022-11-22T01:53:23.681Z,71.62
2022-11-22T01:54:31.047Z,71.66
2022-11-22T01:55:34.944Z,72.16
2022-11-22T01:56:40.503Z,71.73
2022-11-22T01:57:44.988Z,71.44
2022-11-22T01:58:53.638Z,71.60
2022-11-22T01:59:59.825Z,71.74
2022-11-22T02:01:03.429Z,71.31
2022-11-22T02:02:06.889Z,71.84
2022-11-22T02:03:13.129Z,71.87
2022-11-22T02:04:19.732Z,71.67
2022-11-22T02:05:26.077Z,71.62
2022-11-22T02:06:37.924Z,71.37
2022-11-22T02:07:44.405Z,71.45
2022-11-22T02:08:55.011Z,71.80
2022-11-22T02:09:57.659Z,71.71
2022-11-22T02:11:03.027Z,71.66
2022-11-22T02:12:08.418Z,71.77
2022-11-22T02:13:11.743Z,72.13
2022-11-22T02:14:16.395Z,71.63
2022-11-22T02:15:18.468Z,72.03
2022-11-22T02:16:21.595Z,71.48
2022-11-22T02:17:25.665Z,71.74
2022-11-22T02:18:28.592Z,71.87
2022-11-22T02:19:40.787Z,71.63
2022-11-22T02:20:43.796Z,71.86
2022-11-22T02:21:51.206Z,71.89
2022-11-22T02:22:59.543Z,71.87
2022-11-22T02:24:10.034Z,71.98
2022-11-22T02:25:19.172Z,71.95
2022-11-22T02:26:26.731Z,71.87
2022-11-22T02:27:28.704Z,71.93
2022-11-22T02:28:35.760Z,71.93
2022-11-22T02:29:38.614Z,72.23
2022-11-22T02:30:42.822Z,72.05
2022-11-22T02:31:46.621Z,71.93
2022-11-22T02:32:49.457Z,71.92
2022-11-22T02:33:51.383Z,71.79
2022-11-22T02:34:54.165Z,72.26
2022-11-22T02:35:56.655Z,71.94
2022-11-22T02:36:59.534Z,71.96
2022-11-22T02:38:04.159Z,71.93
2022-11-22T02:39:09.848Z,72.08
2022-11-22T02:40:15.230Z,72.21
2022-11-22T02:41:18.676Z,72.08
2022-11-22T02:42:22.204Z,72.18
2022-11-22T02:43:28.876Z,72.41
2022-11-22T02:44:30.902Z,71.80
2022-11-22T02:45:33.649Z,72.61
2022-11-22T02:46:35.494Z,72.70
2022-11-22T02:47:38.316Z,72.26
2022-11-22T02:48:41.483Z,72.31
2022-11-22T02:49:44.317Z,72.12
2022-11-22T02:50:46.636Z,72.33
2022-11-22T02:51:50.189Z,72.40
2022-11-22T02:52:52.301Z,72.70
2022-11-22T02:53:56.752Z,72.61
2022-11-22T02:54:58.648Z,72.21
2022-11-22T02:56:01.540Z,72.56
2022-11-22T02:57:03.516Z,73.46
2022-11-22T02:58:07.779Z,73.04
2022-11-22T02:59:09.645Z,73.23
2022-11-22T03:00:14.416Z,73.47
2022-11-22T03:01:16.438Z,73.05
2022-11-22T03:02:19.492Z,72.87
2022-11-22T03:03:21.291Z,73.18
2022-11-22T03:04:26.994Z,73.48
2022-11-22T03:05:29.028Z,73.41
2022-11-22T03:06:31.900Z,73.53
2022-11-22T03:07:33.749Z,73.30
2022-11-22T03:08:36.584Z,73.80
2022-11-22T03:09:38.381Z,74.61
2022-11-22T03:10:41.235Z,73.51
2022-11-22T03:11:43.595Z,73.91
2022-11-22T03:12:46.435Z,73.57
2022-11-22T03:13:49.605Z,73.69
2022-11-22T03:14:52.455Z,74.13
2022-11-22T03:15:54.298Z,74.22
2022-11-22T03:16:57.112Z,74.52
2022-11-22T03:17:59.518Z,74.20
2022-11-22T03:19:02.358Z,74.10
2022-11-22T03:20:04.932Z,74.53
2022-11-22T03:21:09.785Z,73.80
2022-11-22T03:22:11.842Z,73.46
2022-11-22T03:23:14.806Z,74.05
2022-11-22T03:24:16.874Z,74.06
2022-11-22T03:25:19.897Z,74.88
2022-11-22T03:26:23.069Z,74.45
2022-11-22T03:27:26.012Z,74.57
2022-11-22T03:28:27.813Z,74.55
2022-11-22T03:29:32.336Z,74.33
2022-11-22T03:30:34.339Z,74.46
2022-11-22T03:31:37.212Z,74.25
2022-11-22T03:32:39.930Z,73.99
2022-11-22T03:33:41.860Z,74.12
2022-11-22T03:34:44.630Z,74.72
2022-11-22T03:35:46.457Z,74.47
2022-11-22T03:36:49.194Z,75.45
2022-11-22T03:37:50.994Z,75.17
2022-11-22T03:38:53.971Z,74.35
2022-11-22T03:39:55.778Z,74.71
2022-11-22T03:40:58.683Z,74.84
2022-11-22T03:42:00.655Z,75.34
2022-11-22T03:43:04.812Z,75.00
2022-11-22T03:44:07.117Z,74.69
2022-11-22T03:45:12.061Z,75.21
2022-11-22T03:46:15.478Z,74.67
2022-11-22T03:47:19.414Z,75.06
2022-11-22T03:48:21.529Z,74.99
2022-11-22T03:49:24.356Z,75.27
2022-11-22T03:50:26.278Z,75.20
2022-11-22T03:51:29.264Z,74.88
2022-11-22T03:52:31.142Z,74.87
2022-11-22T03:53:34.632Z,75.22
2022-11-22T03:54:36.438Z,74.44
2022-11-22T03:55:39.430Z,74.23
2022-11-22T03:56:41.258Z,73.79
2022-11-22T03:57:44.399Z,74.01
2022-11-22T03:58:46.191Z,73.98
2022-11-22T03:59:48.946Z,73.62
2022-11-22T04:00:52.133Z,73.87
2022-11-22T04:01:55.277Z,74.22
2022-11-22T04:02:57.229Z,73.60
2022-11-22T04:04:00.035Z,73.97
2022-11-22T04:05:03.464Z,74.14
2022-11-22T04:06:06.304Z,74.32
2022-11-22T04:07:09.291Z,74.27
2022-11-22T04:08:11.498Z,74.83
2022-11-22T04:09:14.373Z,74.63
2022-11-22T04:10:19.341Z,74.38
2022-11-22T04:11:25.119Z,73.82
2022-11-22T04:12:27.029Z,73.92
2022-11-22T04:13:43.734Z,73.87
2022-11-22T04:15:03.972Z,73.82
2022-11-22T04:16:08.188Z,74.17
2022-11-22T04:17:12.567Z,74.39
2022-11-22T04:18:15.994Z,74.11
2022-11-22T04:19:17.850Z,74.11
2022-11-22T04:20:40.205Z,74.06
2022-11-22T04:21:42.113Z,74.56
2022-11-22T04:22:44.838Z,74.35
2022-11-22T04:24:07.105Z,74.39
2022-11-22T04:25:16.219Z,75.91
2022-11-22T04:26:18.158Z,75.35
2022-11-22T04:27:20.987Z,76.07
2022-11-22T04:28:35.236Z,76.38
2022-11-22T04:29:48.131Z,76.17
2022-11-22T04:31:09.400Z,75.85
2022-11-22T04:32:30.881Z,76.06
2022-11-22T04:33:32.998Z,76.45
2022-11-22T04:34:36.526Z,75.72
2022-11-22T04:35:38.504Z,75.45
2022-11-22T04:36:41.455Z,76.20
2022-11-22T04:37:44.650Z,76.77
2022-11-22T04:38:46.496Z,76.59
2022-11-22T04:39:49.399Z,76.36
2022-11-22T04:40:51.232Z,76.75
2022-11-22T04:42:15.255Z,76.59
2022-11-22T04:43:42.106Z,76.53
2022-11-22T04:44:44.734Z,76.54
2022-11-22T04:45:48.101Z,77.04
2022-11-22T04:46:49.945Z,77.13
2022-11-22T04:48:00.139Z,77.06
2022-11-22T04:49:02.026Z,77.41
2022-11-22T04:50:27.918Z,76.92
2022-11-22T04:51:48.605Z,77.14
2022-11-22T04:52:55.736Z,77.89
2022-11-22T04:53:58.718Z,78.08
2022-11-22T04:55:00.814Z,77.98
2022-11-22T04:56:03.781Z,78.05
2022-11-22T04:57:05.613Z,77.92
2022-11-22T04:58:08.466Z,78.36
2022-11-22T04:59:10.347Z,78.43
2022-11-22T05:00:13.990Z,79.04
2022-11-22T05:01:15.857Z,79.07
2022-11-22T05:02:18.744Z,79.42
2022-11-22T05:03:21.995Z,79.73
2022-11-22T05:04:24.926Z,79.19
2022-11-22T05:05:27.374Z,79.99
2022-11-22T05:06:30.219Z,79.73
2022-11-22T05:07:33.707Z,79.75
2022-11-22T05:08:36.572Z,79.62
2022-11-22T05:09:38.412Z,79.31
2022-11-22T05:11:00.314Z,78.34
2022-11-22T05:12:02.313Z,78.87
2022-11-22T05:13:05.193Z,79.08
2022-11-22T05:14:07.218Z,78.90
2022-11-22T05:15:11.695Z,78.99
2022-11-22T05:16:16.185Z,79.10
2022-11-22T05:17:18.187Z,79.76
2022-11-22T05:18:23.725Z,80.78
2022-11-22T05:19:27.325Z,80.65
2022-11-22T05:20:30.367Z,80.41
2022-11-22T05:21:35.622Z,80.18
2022-11-22T05:22:55.880Z,79.54
2022-11-22T05:23:58.755Z,79.83
2022-11-22T05:25:00.630Z,79.84
2022-11-22T05:26:03.884Z,79.90
2022-11-22T05:27:06.649Z,79.64
2022-11-22T05:28:08.421Z,79.05
2022-11-22T05:29:11.662Z,79.20
2022-11-22T05:30:14.137Z,79.68
2022-11-22T05:31:23.024Z,79.87
2022-11-22T05:32:24.858Z,79.57
2022-11-22T05:33:29.138Z,79.17
2022-11-22T05:34:32.044Z,79.49
2022-11-22T05:35:34.312Z,79.74
2022-11-22T05:36:37.153Z,80.04
2022-11-22T05:37:39.014Z,79.10
2022-11-22T05:38:42.223Z,79.49
2022-11-22T05:39:44.036Z,79.13
2022-11-22T05:40:46.979Z,78.75
2022-11-22T05:41:56.769Z,78.36
2022-11-22T05:42:58.941Z,77.61
2022-11-22T05:44:01.908Z,78.62
2022-11-22T05:45:04.386Z,79.08
2022-11-22T05:46:08.769Z,79.39
2022-11-22T05:47:11.848Z,79.41
2022-11-22T05:48:13.727Z,79.10
2022-11-22T05:49:17.924Z,78.87
2022-11-22T05:50:20.129Z,79.75
2022-11-22T05:51:34.436Z,79.24
2022-11-22T05:52:37.180Z,79.41
2022-11-22T05:53:40.772Z,79.93
2022-11-22T05:54:43.008Z,79.57
2022-11-22T05:55:45.886Z,79.89
2022-11-22T05:56:48.575Z,81.70
2022-11-22T05:57:51.407Z,83.21
2022-11-22T05:58:53.473Z,82.45
2022-11-22T05:59:56.378Z,82.09
2022-11-22T06:01:04.175Z,81.86
2022-11-22T06:02:06.106Z,81.07
2022-11-22T06:03:09.066Z,80.84
2022-11-22T06:04:11.437Z,80.94
2022-11-22T06:05:15.959Z,80.92
2022-11-22T06:06:18.504Z,80.97
2022-11-22T06:07:21.567Z,80.19
2022-11-22T06:08:23.481Z,80.06
2022-11-22T06:09:26.366Z,80.47
2022-11-22T06:10:28.318Z,80.65
2022-11-22T06:11:31.248Z,79.99
2022-11-22T06:12:33.167Z,79.94
2022-11-22T06:13:36.957Z,80.16
2022-11-22T06:14:43.211Z,80.27
2022-11-22T06:15:46.387Z,80.85
2022-11-22T06:16:48.192Z,80.58
2022-11-22T06:17:51.194Z,80.82
2022-11-22T06:18:53.710Z,81.14
2022-11-22T06:19:58.962Z,81.13
2022-11-22T06:21:08.142Z,81.30
2022-11-22T06:22:11.074Z,80.97
2022-11-22T06:23:12.912Z,81.31
2022-11-22T06:24:15.667Z,81.11
2022-11-22T06:25:17.715Z,81.45
2022-11-22T06:26:21.577Z,81.35
2022-11-22T06:27:23.486Z,81.57
2022-11-22T06:28:26.732Z,81.47
2022-11-22T06:29:29.542Z,81.24
2022-11-22T06:30:32.534Z,80.92
2022-11-22T06:31:34.466Z,81.17
2022-11-22T06:32:38.936Z,80.64
2022-11-22T06:33:41.753Z,80.78
2022-11-22T06:34:44.651Z,80.76
2022-11-22T06:35:47.517Z,80.71
2022-11-22T06:36:51.704Z,80.96
2022-11-22T06:37:59.193Z,80.93
2022-11-22T06:39:03.827Z,81.18
2022-11-22T06:40:08.419Z,81.68
2022-11-22T06:41:12.668Z,81.05
2022-11-22T06:42:15.685Z,81.45
2022-11-22T06:43:17.538Z,81.63
2022-11-22T06:44:20.300Z,81.78
2022-11-22T06:45:23.087Z,81.93
2022-11-22T06:46:27.266Z,81.90
2022-11-22T06:47:30.154Z,82.11
2022-11-22T06:48:33.595Z,82.27
2022-11-22T06:49:36.365Z,81.95
2022-11-22T06:50:38.238Z,82.16
2022-11-22T06:51:41.084Z,82.04
2022-11-22T06:52:50.287Z,82.05
2022-11-22T06:53:55.123Z,82.52
2022-11-22T06:54:57.018Z,82.77
2022-11-22T06:56:03.402Z,82.40
2022-11-22T06:57:05.293Z,81.91
2022-11-22T06:58:08.294Z,81.84
2022-11-22T06:59:10.489Z,82.21
2022-11-22T07:00:14.784Z,82.18
2022-11-22T07:01:19.061Z,82.08
2022-11-22T07:02:21.960Z,82.22
2022-11-22T07:03:23.786Z,82.45
2022-11-22T07:04:26.755Z,82.71
2022-11-22T07:05:28.533Z,82.78
2022-11-22T07:06:32.860Z,82.80
2022-11-22T07:07:35.698Z,82.40
2022-11-22T07:08:39.817Z,82.61
2022-11-22T07:09:42.842Z,82.48
2022-11-22T07:10:44.639Z,82.19
2022-11-22T07:11:47.994Z,82.38
2022-11-22T07:12:50.737Z,82.60
2022-11-22T07:13:55.069Z,82.56
2022-11-22T07:14:58.367Z,82.65
2022-11-22T07:16:01.918Z,82.46
2022-11-22T07:17:04.936Z,82.84
2022-11-22T07:18:06.790Z,82.76
2022-11-22T07:19:09.739Z,82.88
2022-11-22T07:20:11.995Z,82.60
2022-11-22T07:21:17.636Z,82.62
2022-11-22T07:22:19.474Z,82.69
2022-11-22T07:23:22.504Z,82.69
2022-11-22T07:24:26.849Z,82.46
2022-11-22T07:25:28.672Z,82.75
2022-11-22T07:26:31.523Z,82.83
2022-11-22T07:27:33.322Z,82.85
2022-11-22T07:28:36.406Z,82.66
2022-11-22T07:29:38.250Z,83.08
2022-11-22T07:30:44.199Z,82.65
2022-11-22T07:31:47.412Z,83.05
2022-11-22T07:32:49.423Z,82.37
2022-11-22T07:33:52.259Z,82.62
2022-11-22T07:34:55.160Z,82.75
2022-11-22T07:36:03.501Z,82.92
2022-11-22T07:37:09.173Z,82.50
2022-11-22T07:38:11.422Z,82.54
2022-11-22T07:39:14.466Z,82.61
2022-11-22T07:40:18.085Z,82.79
2022-11-22T07:41:22.142Z,83.05
2022-11-22T07:42:26.364Z,83.00
2022-11-22T07:43:30.445Z,83.04
2022-11-22T07:44:33.270Z,82.98
2022-11-22T07:45:35.160Z,83.23
2022-11-22T07:46:38.160Z,83.25
2022-11-22T07:47:40.053Z,83.43
2022-11-22T07:48:42.880Z,83.02
2022-11-22T07:49:45.723Z,83.60
2022-11-22T07:50:47.711Z,83.44
2022-11-22T07:51:50.584Z,83.28
2022-11-22T07:52:55.816Z,83.41
2022-11-22T07:53:58.917Z,83.41
2022-11-22T07:55:00.928Z,83.06
2022-11-22T07:56:06.235Z,83.38
2022-11-22T07:57:09.920Z,82.69
2022-11-22T07:58:13.458Z,83.53
2022-11-22T07:59:16.620Z,83.37
2022-11-22T08:00:21.221Z,83.17
2022-11-22T08:01:24.209Z,83.67
2022-11-22T08:02:26.589Z,83.46
2022-11-22T08:03:29.561Z,83.40
2022-11-22T08:04:32.502Z,83.51
2022-11-22T08:05:34.405Z,83.53
2022-11-22T08:06:37.299Z,83.59
2022-11-22T08:07:39.238Z,83.48
2022-11-22T08:08:42.714Z,83.66
2022-11-22T08:09:45.002Z,83.94
2022-11-22T08:10:49.428Z,83.97
2022-11-22T08:11:54.709Z,83.66
2022-11-22T08:13:02.143Z,83.45
2022-11-22T08:14:06.817Z,83.85
2022-11-22T08:15:10.628Z,83.57
2022-11-22T08:16:15.666Z,84.01
2022-11-22T08:17:17.711Z,83.93
2022-11-22T08:18:20.631Z,83.88
2022-11-22T08:19:24.047Z,83.99
2022-11-22T08:20:26.084Z,83.63
2022-11-22T08:21:29.720Z,84.33
2022-11-22T08:22:31.796Z,84.16
2022-11-22T08:23:35.001Z,84.00
2022-11-22T08:24:37.841Z,84.28
2022-11-22T08:25:39.723Z,84.05
2022-11-22T08:26:43.202Z,84.17
2022-11-22T08:27:46.393Z,84.13
2022-11-22T08:28:49.302Z,84.05
2022-11-22T08:29:51.137Z,84.28
2022-11-22T08:31:00.446Z,84.32
2022-11-22T08:32:03.396Z,83.91
2022-11-22T08:33:05.390Z,84.62
2022-11-22T08:34:08.199Z,84.16
2022-11-22T08:35:10.020Z,84.10
2022-11-22T08:36:13.269Z,84.00
2022-11-22T08:37:15.164Z,84.29
2022-11-22T08:38:18.101Z,83.90
2022-11-22T08:39:22.073Z,84.22
2022-11-22T08:40:24.382Z,84.47
2022-11-22T08:41:27.605Z,84.25
2022-11-22T08:42:29.463Z,84.14
2022-11-22T08:43:33.901Z,84.11
2022-11-22T08:44:35.763Z,84.46
2022-11-22T08:45:39.171Z,84.36
2022-11-22T08:46:42.375Z,83.85
2022-11-22T08:47:44.254Z,84.45
2022-11-22T08:48:47.360Z,84.07
2022-11-22T08:49:49.142Z,84.21
2022-11-22T08:50:52.804Z,84.53
2022-11-22T08:51:55.620Z,84.38
2022-11-22T08:52:57.563Z,84.64
2022-11-22T08:54:00.495Z,84.51
2022-11-22T08:55:03.362Z,84.73
2022-11-22T08:56:09.589Z,84.23
2022-11-22T08:57:12.506Z,84.26
2022-11-22T08:58:14.466Z,84.53
2022-11-22T08:59:18.691Z,84.96
2022-11-22T09:00:22.069Z,84.46
2022-11-22T09:01:23.958Z,84.81
2022-11-22T09:02:26.893Z,84.40
2022-11-22T09:03:28.835Z,84.51
2022-11-22T09:04:32.216Z,84.58
2022-11-22T09:05:35.091Z,84.15
2022-11-22T09:09:37.232Z,84.71
2022-11-22T09:10:56.528Z,84.75
2022-11-22T09:11:58.641Z,84.74
2022-11-22T09:13:01.593Z,85.15
2022-11-22T09:14:04.506Z,85.31
2022-11-22T09:15:09.465Z,85.15
2022-11-22T09:16:13.699Z,85.30
2022-11-22T09:17:18.301Z,85.11
2022-11-22T09:18:21.908Z,85.48
2022-11-22T09:19:25.427Z,84.98
2022-11-22T09:20:28.303Z,84.94
2022-11-22T09:21:30.201Z,85.33
2022-11-22T09:22:33.525Z,85.50
2022-11-22T09:23:36.178Z,84.95
2022-11-22T09:24:39.025Z,85.56
2022-11-22T09:25:42.158Z,85.18
2022-11-22T09:26:44.169Z,84.81
2022-11-22T09:27:47.028Z,85.37
2022-11-22T09:28:48.848Z,85.14
2022-11-22T09:29:57.836Z,85.06
2022-11-22T09:31:09.996Z,85.36
2022-11-22T09:32:21.228Z,85.63
2022-11-22T09:33:25.222Z,85.28
2022-11-22T09:34:30.871Z,85.61
2022-11-22T09:35:32.790Z,85.15
2022-11-22T09:36:35.621Z,85.14
2022-11-22T09:37:38.464Z,85.78
2022-11-22T09:38:40.774Z,85.51
2022-11-22T09:39:48.301Z,85.52
2022-11-22T09:40:50.655Z,85.63
2022-11-22T09:42:20.666Z,85.84
2022-11-22T09:43:35.568Z,85.30
2022-11-22T09:44:51.454Z,85.31
2022-11-22T09:46:20.574Z,85.74
2022-11-22T09:47:40.131Z,85.52
2022-11-22T09:49:13.936Z,85.74
2022-11-22T09:50:27.890Z,85.71
2022-11-22T09:51:38.341Z,85.27
2022-11-22T09:52:45.371Z,84.87
2022-11-22T09:53:55.311Z,84.68
2022-11-22T09:55:01.859Z,84.62
2022-11-22T09:56:09.507Z,84.51
2022-11-22T09:57:17.315Z,85.29
2022-11-22T09:58:29.037Z,84.46
2022-11-22T09:59:35.502Z,84.47
2022-11-22T10:00:38.761Z,84.92
2022-11-22T10:01:45.913Z,84.48
2022-11-22T10:03:00.420Z,84.52
2022-11-22T10:04:08.292Z,84.87
2022-11-22T10:05:16.945Z,84.88
2022-11-22T10:06:25.658Z,84.88
2022-11-22T10:07:35.092Z,84.58
2022-11-22T10:08:42.657Z,84.96
2022-11-22T10:09:53.397Z,84.89
2022-11-22T10:10:59.660Z,84.45
2022-11-22T10:12:08.017Z,85.08
2022-11-22T10:13:14.429Z,84.53
2022-11-22T10:14:30.033Z,84.90
2022-11-22T10:15:38.601Z,84.49
2022-11-22T10:16:50.250Z,84.88
2022-11-22T10:17:55.991Z,84.55
2022-11-22T10:19:05.231Z,84.23
2022-11-22T10:20:15.908Z,84.83
2022-11-22T10:21:20.743Z,84.38
2022-11-22T10:22:23.169Z,84.08
2022-11-22T10:23:27.820Z,84.59
2022-11-22T10:24:31.294Z,84.35
2022-11-22T10:25:40.736Z,83.97
2022-11-22T10:26:44.431Z,84.06
2022-11-22T10:27:54.958Z,83.71
2022-11-22T10:29:19.124Z,83.75
2022-11-22T10:30:22.793Z,83.31
2022-11-22T10:31:30.499Z,83.41
2022-11-22T10:32:41.535Z,83.26
2022-11-22T10:33:51.363Z,83.41
2022-11-22T10:35:15.569Z,83.47
2022-11-22T10:36:30.265Z,83.61
2022-11-22T10:37:43.453Z,83.61
2022-11-22T10:39:11.241Z,83.44
2022-11-22T10:40:22.454Z,83.92
2022-11-22T10:41:40.784Z,83.81
2022-11-22T10:43:07.459Z,83.29
2022-11-22T10:44:25.268Z,83.61
2022-11-22T10:45:32.310Z,82.87
2022-11-22T10:46:51.107Z,83.33
2022-11-22T10:48:11.025Z,82.78
2022-11-22T10:49:24.072Z,83.48
2022-11-22T10:50:34.550Z,83.50
2022-11-22T10:51:48.084Z,83.19
2022-11-22T10:53:01.042Z,82.94
2022-11-22T10:54:13.688Z,82.58
2022-11-22T10:55:29.180Z,82.88
2022-11-22T10:56:36.287Z,82.68
2022-11-22T10:57:45.501Z,83.31
2022-11-22T10:59:01.391Z,82.96
2022-11-22T11:00:17.919Z,83.07
2022-11-22T11:01:30.650Z,83.31
2022-11-22T11:02:54.708Z,82.66
2022-11-22T11:04:02.210Z,83.32
2022-11-22T11:05:11.621Z,83.09
2022-11-22T11:06:26.657Z,82.54
2022-11-22T11:07:45.019Z,82.70
2022-11-22T11:10:29.137Z,82.78
2022-11-22T11:11:37.772Z,82.93
2022-11-22T11:12:43.781Z,83.16
2022-11-22T11:13:51.238Z,82.50
2022-11-22T11:14:57.386Z,82.37
2022-11-22T11:16:04.272Z,82.56
2022-11-22T11:17:08.169Z,82.61
2022-11-22T11:18:16.520Z,82.44
2022-11-22T11:19:22.412Z,82.42
2022-11-22T11:20:28.219Z,82.57
2022-11-22T11:21:30.045Z,82.25
2022-11-22T11:23:12.632Z,82.04
2022-11-22T11:23:58.568Z,82.03
2022-11-22T11:25:33.169Z,81.93
2022-11-22T11:26:37.118Z,82.05
2022-11-22T11:27:43.430Z,81.81
2022-11-22T11:28:46.611Z,82.63
2022-11-22T11:29:52.179Z,82.32
2022-11-22T11:30:57.451Z,82.58
2022-11-22T11:32:12.133Z,82.77
2022-11-22T11:33:26.419Z,82.94
2022-11-22T11:34:31.491Z,82.60
2022-11-22T11:35:35.308Z,82.85
2022-11-22T11:36:42.957Z,82.26
2022-11-22T11:37:45.889Z,82.29
2022-11-22T11:38:55.606Z,82.67
2022-11-22T11:39:58.510Z,82.77
2022-11-22T11:41:24.020Z,83.03
2022-11-22T11:42:31.545Z,82.26
2022-11-22T11:43:34.576Z,82.64
2022-11-22T11:44:38.898Z,82.54
2022-11-22T11:45:41.019Z,82.54
2022-11-22T11:46:48.961Z,82.87
2022-11-22T11:47:51.215Z,82.72
2022-11-22T11:48:55.526Z,82.42
2022-11-22T11:49:58.891Z,82.84
2022-11-22T11:51:14.417Z,82.58
2022-11-22T11:52:21.206Z,81.85
2022-11-22T11:53:27.074Z,82.16
2022-11-22T11:54:40.886Z,81.89
2022-11-22T11:55:43.719Z,82.01
2022-11-22T11:56:49.182Z,82.14
2022-11-22T11:57:54.215Z,82.66
2022-11-22T11:58:58.146Z,82.17
2022-11-22T12:00:02.959Z,82.38
2022-11-22T12:01:11.226Z,82.48
2022-11-22T12:02:17.693Z,82.83
2022-11-22T12:03:20.488Z,82.12
2022-11-22T12:04:26.949Z,82.58
2022-11-22T12:05:33.057Z,82.42
2022-11-22T12:06:35.848Z,81.92
2022-11-22T12:07:43.692Z,82.45
2022-11-22T12:08:46.729Z,82.19
2022-11-22T12:09:51.516Z,82.39
2022-11-22T12:11:02.797Z,82.41
2022-11-22T12:12:18.988Z,82.39
2022-11-22T12:13:27.414Z,82.21
2022-11-22T12:14:48.853Z,82.36
2022-11-22T12:15:57.135Z,82.72
2022-11-22T12:17:06.641Z,82.42
2022-11-22T12:18:26.719Z,82.72
2022-11-22T12:19:38.006Z,82.43
2022-11-22T12:20:48.720Z,82.34
2022-11-22T12:21:58.429Z,82.79
2022-11-22T12:23:13.531Z,82.98
2022-11-22T12:24:43.143Z,82.75
2022-11-22T12:25:46.617Z,82.73
2022-11-22T12:26:49.604Z,82.29
2022-11-22T12:27:52.507Z,82.69
2022-11-22T12:28:56.025Z,82.13
2022-11-22T12:29:59.286Z,82.48
2022-11-22T12:31:12.034Z,82.47
2022-11-22T12:32:23.505Z,82.39
2022-11-22T12:33:31.735Z,82.63
2022-11-22T12:34:44.111Z,82.77
2022-11-22T12:35:50.759Z,82.40
2022-11-22T12:37:01.084Z,82.77
2022-11-22T12:38:11.482Z,82.50
2022-11-22T12:39:21.130Z,82.87
2022-11-22T12:40:26.681Z,82.24
2022-11-22T12:41:32.361Z,82.59
2022-11-22T12:42:44.765Z,83.16
2022-11-22T12:43:53.356Z,82.65
2022-11-22T12:45:02.467Z,82.96
2022-11-22T12:46:10.923Z,83.29
2022-11-22T12:47:17.469Z,83.34
2022-11-22T12:48:24.439Z,83.15
2022-11-22T12:49:33.057Z,83.10
2022-11-22T12:50:41.382Z,82.63
2022-11-22T12:51:51.517Z,82.44
2022-11-22T12:53:00.498Z,82.52
2022-11-22T12:54:07.707Z,82.44
2022-11-22T12:55:18.383Z,82.95
2022-11-22T12:56:33.036Z,82.87
2022-11-22T12:57:41.707Z,82.89
2022-11-22T12:58:51.710Z,83.02
2022-11-22T13:00:05.728Z,82.62
2022-11-22T13:01:16.704Z,82.60
2022-11-22T13:02:30.271Z,82.39
2022-11-22T13:03:38.413Z,82.48
2022-11-22T13:04:49.593Z,82.22
2022-11-22T13:05:57.230Z,83.00
2022-11-22T13:07:08.288Z,82.55
2022-11-22T13:08:16.667Z,82.71
2022-11-22T13:09:25.269Z,82.58
2022-11-22T13:10:35.224Z,83.07
2022-11-22T13:11:45.164Z,83.09
2022-11-22T13:12:49.580Z,82.77
2022-11-22T13:13:57.587Z,82.86
2022-11-22T13:15:02.440Z,82.40
2022-11-22T13:16:11.055Z,82.27
2022-11-22T13:17:17.893Z,82.65
2022-11-22T13:18:25.146Z,82.77
2022-11-22T13:19:31.864Z,83.00
2022-11-22T13:20:42.813Z,82.42
2022-11-22T13:22:01.645Z,82.51
2022-11-22T13:23:23.135Z,82.49
2022-11-22T13:24:37.079Z,82.85
2022-11-22T13:26:00.572Z,82.38
2022-11-22T13:27:13.106Z,82.36
2022-11-22T13:28:19.987Z,82.14
2022-11-22T13:29:25.831Z,81.81
2022-11-22T13:30:31.314Z,82.34
2022-11-22T13:31:40.779Z,82.09
2022-11-22T13:32:44.203Z,81.90
2022-11-22T13:33:56.984Z,81.83
2022-11-22T13:35:19.062Z,82.50
2022-11-22T13:36:36.575Z,82.33
2022-11-22T13:37:42.950Z,82.03
2022-11-22T13:38:46.763Z,81.87
2022-11-22T13:39:51.246Z,82.36
2022-11-22T13:40:54.032Z,82.16
2022-11-22T13:42:06.573Z,81.53
2022-11-22T13:43:50.276Z,81.77
2022-11-22T13:45:08.951Z,81.48
2022-11-22T13:46:45.284Z,81.70
2022-11-22T13:47:48.504Z,81.97
2022-11-22T13:49:15.859Z,81.97
2022-11-22T13:50:58.668Z,81.38
2022-11-22T13:52:05.042Z,81.71
2022-11-22T13:53:24.973Z,81.65
2022-11-22T13:55:04.511Z,81.63
2022-11-22T13:56:41.004Z,81.65
2022-11-22T13:57:44.271Z,81.05
2022-11-22T13:58:52.581Z,80.99
2022-11-22T14:00:47.732Z,81.46
2022-11-22T14:02:15.550Z,80.85
2022-11-22T14:03:27.877Z,81.14
2022-11-22T14:04:38.403Z,80.43
2022-11-22T14:05:51.298Z,80.83
2022-11-22T14:06:56.383Z,80.45
2022-11-22T14:08:00.395Z,80.67
2022-11-22T14:09:16.082Z,80.78
2022-11-22T14:10:33.732Z,80.77
2022-11-22T14:11:48.835Z,81.16
2022-11-22T14:13:12.283Z,81.20
2022-11-22T14:14:22.677Z,80.80
2022-11-22T14:15:46.153Z,80.39